sensor_id;sensor_type;location;lat;lon;timestamp;temperature;humidity
48206;DHT22;33995;48.202;16.260;2024-01-07T00:00:46;3.70;99.90
48206;DHT22;33995;48.202;16.260;2024-01-07T00:03:13;3.70;99.90
48206;DHT22;33995;48.202;16.260;2024-01-07T00:05:40;3.90;99.90
48206;DHT22;33995;48.202;16.260;2024-01-07T00:08:07;3.70;99.90
48206;DHT22;33995;48.202;16.260;2024-01-07T00:10:34;3.70;99.90
48206;DHT22;33995;48.202;16.260;2024-01-07T00:13:01;3.60;99.90
48206;DHT22;33995;48.202;16.260;2024-01-07T00:15:29;3.60;99.90
48206;DHT22;33995;48.202;16.260;2024-01-07T00:17:56;3.70;99.90
48206;DHT22;33995;48.202;16.260;2024-01-07T00:20:23;3.70;99.90
48206;DHT22;33995;48.202;16.260;2024-01-07T00:22:50;3.90;99.90
48206;DHT22;33995;48.202;16.260;2024-01-07T00:25:17;3.80;99.90
48206;DHT22;33995;48.202;16.260;2024-01-07T00:27:45;3.70;99.90
48206;DHT22;33995;48.202;16.260;2024-01-07T00:30:12;3.70;99.90
48206;DHT22;33995;48.202;16.260;2024-01-07T00:32:40;3.70;99.90
48206;DHT22;33995;48.202;16.260;2024-01-07T00:35:07;3.70;99.90
48206;DHT22;33995;48.202;16.260;2024-01-07T00:37:34;3.70;99.90
48206;DHT22;33995;48.202;16.260;2024-01-07T00:40:02;3.60;99.90
48206;DHT22;33995;48.202;16.260;2024-01-07T00:42:30;3.60;99.90
48206;DHT22;33995;48.202;16.260;2024-01-07T00:44:57;3.40;99.90
48206;DHT22;33995;48.202;16.260;2024-01-07T00:47:24;3.20;99.90
48206;DHT22;33995;48.202;16.260;2024-01-07T00:49:51;3.20;99.90
48206;DHT22;33995;48.202;16.260;2024-01-07T00:52:19;3.20;99.90
48206;DHT22;33995;48.202;16.260;2024-01-07T00:54:46;3.20;99.90
48206;DHT22;33995;48.202;16.260;2024-01-07T00:57:13;3.10;99.90
48206;DHT22;33995;48.202;16.260;2024-01-07T00:59:41;3.10;99.90
48206;DHT22;33995;48.202;16.260;2024-01-07T01:02:08;3.10;99.90
48206;DHT22;33995;48.202;16.260;2024-01-07T01:04:38;3.10;99.90
48206;DHT22;33995;48.202;16.260;2024-01-07T01:07:06;2.90;99.90
48206;DHT22;33995;48.202;16.260;2024-01-07T01:09:34;3.00;99.90
48206;DHT22;33995;48.202;16.260;2024-01-07T01:12:02;3.00;99.90
48206;DHT22;33995;48.202;16.260;2024-01-07T01:14:29;3.00;99.90
48206;DHT22;33995;48.202;16.260;2024-01-07T01:16:56;3.10;99.90
48206;DHT22;33995;48.202;16.260;2024-01-07T01:19:24;3.10;99.90
48206;DHT22;33995;48.202;16.260;2024-01-07T01:21:51;3.00;99.90
48206;DHT22;33995;48.202;16.260;2024-01-07T01:24:18;3.00;99.90
48206;DHT22;33995;48.202;16.260;2024-01-07T01:26:45;3.10;99.90
48206;DHT22;33995;48.202;16.260;2024-01-07T01:29:12;3.10;99.90
48206;DHT22;33995;48.202;16.260;2024-01-07T01:31:39;3.10;99.90
48206;DHT22;33995;48.202;16.260;2024-01-07T01:34:07;3.10;99.90
48206;DHT22;33995;48.202;16.260;2024-01-07T01:36:34;3.20;99.90
48206;DHT22;33995;48.202;16.260;2024-01-07T01:39:02;3.20;99.90
48206;DHT22;33995;48.202;16.260;2024-01-07T01:41:29;3.20;99.90
48206;DHT22;33995;48.202;16.260;2024-01-07T01:43:58;3.20;99.90
48206;DHT22;33995;48.202;16.260;2024-01-07T01:46:26;3.20;99.90
48206;DHT22;33995;48.202;16.260;2024-01-07T01:48:54;3.00;99.90
48206;DHT22;33995;48.202;16.260;2024-01-07T01:51:24;3.10;99.90
48206;DHT22;33995;48.202;16.260;2024-01-07T01:53:51;3.10;99.90
48206;DHT22;33995;48.202;16.260;2024-01-07T01:56:20;3.20;99.90
48206;DHT22;33995;48.202;16.260;2024-01-07T01:58:47;3.10;99.90
48206;DHT22;33995;48.202;16.260;2024-01-07T02:01:14;3.10;99.90
48206;DHT22;33995;48.202;16.260;2024-01-07T02:03:41;3.00;99.90
48206;DHT22;33995;48.202;16.260;2024-01-07T02:07:03;3.10;99.90
48206;DHT22;33995;48.202;16.260;2024-01-07T02:09:31;3.20;99.90
48206;DHT22;33995;48.202;16.260;2024-01-07T02:12:04;3.10;99.90
48206;DHT22;33995;48.202;16.260;2024-01-07T02:14:32;3.00;99.90
48206;DHT22;33995;48.202;16.260;2024-01-07T02:16:59;3.00;99.90
48206;DHT22;33995;48.202;16.260;2024-01-07T02:19:26;3.00;99.90
48206;DHT22;33995;48.202;16.260;2024-01-07T02:21:53;3.10;99.90
48206;DHT22;33995;48.202;16.260;2024-01-07T02:24:20;3.10;99.90
48206;DHT22;33995;48.202;16.260;2024-01-07T02:26:47;3.10;99.90
48206;DHT22;33995;48.202;16.260;2024-01-07T02:29:14;3.00;99.90
48206;DHT22;33995;48.202;16.260;2024-01-07T02:31:41;3.10;99.90
48206;DHT22;33995;48.202;16.260;2024-01-07T02:34:11;3.10;99.90
48206;DHT22;33995;48.202;16.260;2024-01-07T02:36:39;2.90;99.90
48206;DHT22;33995;48.202;16.260;2024-01-07T02:39:06;3.00;99.90
48206;DHT22;33995;48.202;16.260;2024-01-07T02:41:36;3.00;99.90
48206;DHT22;33995;48.202;16.260;2024-01-07T02:44:03;3.00;99.90
48206;DHT22;33995;48.202;16.260;2024-01-07T02:46:31;3.00;99.90
48206;DHT22;33995;48.202;16.260;2024-01-07T02:48:59;3.00;99.90
48206;DHT22;33995;48.202;16.260;2024-01-07T02:51:26;3.00;99.90
48206;DHT22;33995;48.202;16.260;2024-01-07T02:53:53;2.90;99.90
48206;DHT22;33995;48.202;16.260;2024-01-07T02:56:20;3.00;99.90
48206;DHT22;33995;48.202;16.260;2024-01-07T02:58:47;2.90;99.90
48206;DHT22;33995;48.202;16.260;2024-01-07T03:01:14;2.80;99.90
48206;DHT22;33995;48.202;16.260;2024-01-07T03:03:41;2.80;99.90
48206;DHT22;33995;48.202;16.260;2024-01-07T03:06:08;2.80;99.90
48206;DHT22;33995;48.202;16.260;2024-01-07T03:08:35;2.80;99.90
48206;DHT22;33995;48.202;16.260;2024-01-07T03:11:05;2.70;99.90
48206;DHT22;33995;48.202;16.260;2024-01-07T03:13:54;2.70;99.90
48206;DHT22;33995;48.202;16.260;2024-01-07T03:17:12;2.80;99.90
48206;DHT22;33995;48.202;16.260;2024-01-07T03:20:31;2.80;99.90
48206;DHT22;33995;48.202;16.260;2024-01-07T03:23:47;2.80;99.90
48206;DHT22;33995;48.202;16.260;2024-01-07T03:26:16;2.80;99.90
48206;DHT22;33995;48.202;16.260;2024-01-07T03:28:44;2.80;99.90
48206;DHT22;33995;48.202;16.260;2024-01-07T03:31:15;2.80;99.90
48206;DHT22;33995;48.202;16.260;2024-01-07T03:33:43;2.80;99.90
48206;DHT22;33995;48.202;16.260;2024-01-07T03:36:12;2.80;99.90
48206;DHT22;33995;48.202;16.260;2024-01-07T03:38:40;2.80;99.90
48206;DHT22;33995;48.202;16.260;2024-01-07T03:41:07;2.70;99.90
48206;DHT22;33995;48.202;16.260;2024-01-07T03:43:35;2.60;99.90
48206;DHT22;33995;48.202;16.260;2024-01-07T03:46:02;2.60;99.90
48206;DHT22;33995;48.202;16.260;2024-01-07T03:48:29;2.60;99.90
48206;DHT22;33995;48.202;16.260;2024-01-07T03:50:57;2.60;99.90
48206;DHT22;33995;48.202;16.260;2024-01-07T03:53:24;2.60;99.90
48206;DHT22;33995;48.202;16.260;2024-01-07T03:55:51;2.50;99.90
48206;DHT22;33995;48.202;16.260;2024-01-07T03:58:17;2.60;99.90
48206;DHT22;33995;48.202;16.260;2024-01-07T04:00:45;2.50;99.90
48206;DHT22;33995;48.202;16.260;2024-01-07T04:03:12;2.50;99.90
48206;DHT22;33995;48.202;16.260;2024-01-07T04:05:39;2.50;99.90
48206;DHT22;33995;48.202;16.260;2024-01-07T04:08:09;2.60;99.90
48206;DHT22;33995;48.202;16.260;2024-01-07T04:10:36;2.60;99.90
48206;DHT22;33995;48.202;16.260;2024-01-07T04:13:04;2.50;99.90
48206;DHT22;33995;48.202;16.260;2024-01-07T04:15:31;2.50;99.90
48206;DHT22;33995;48.202;16.260;2024-01-07T04:18:04;2.50;99.90
48206;DHT22;33995;48.202;16.260;2024-01-07T04:20:32;2.30;99.90
48206;DHT22;33995;48.202;16.260;2024-01-07T04:22:59;2.40;99.90
48206;DHT22;33995;48.202;16.260;2024-01-07T04:25:26;2.40;99.90
48206;DHT22;33995;48.202;16.260;2024-01-07T04:27:53;2.40;99.90
48206;DHT22;33995;48.202;16.260;2024-01-07T04:30:20;2.40;99.90
48206;DHT22;33995;48.202;16.260;2024-01-07T04:32:47;2.30;99.90
48206;DHT22;33995;48.202;16.260;2024-01-07T04:35:14;2.30;99.90
48206;DHT22;33995;48.202;16.260;2024-01-07T04:37:42;2.30;99.90
48206;DHT22;33995;48.202;16.260;2024-01-07T04:40:09;2.30;99.90
48206;DHT22;33995;48.202;16.260;2024-01-07T04:42:37;2.30;99.90
48206;DHT22;33995;48.202;16.260;2024-01-07T04:45:04;2.30;99.90
48206;DHT22;33995;48.202;16.260;2024-01-07T04:47:32;2.30;99.90
48206;DHT22;33995;48.202;16.260;2024-01-07T04:50:03;2.10;99.90
48206;DHT22;33995;48.202;16.260;2024-01-07T04:52:31;2.20;99.90
48206;DHT22;33995;48.202;16.260;2024-01-07T04:54:58;2.20;99.90
48206;DHT22;33995;48.202;16.260;2024-01-07T04:57:25;2.20;99.90
48206;DHT22;33995;48.202;16.260;2024-01-07T04:59:53;2.20;99.90
48206;DHT22;33995;48.202;16.260;2024-01-07T05:02:20;2.30;99.90
48206;DHT22;33995;48.202;16.260;2024-01-07T05:05:38;2.20;99.90
48206;DHT22;33995;48.202;16.260;2024-01-07T05:08:05;2.10;99.90
48206;DHT22;33995;48.202;16.260;2024-01-07T05:10:33;2.00;99.90
48206;DHT22;33995;48.202;16.260;2024-01-07T05:12:59;2.10;99.90
48206;DHT22;33995;48.202;16.260;2024-01-07T05:15:32;2.10;99.90
48206;DHT22;33995;48.202;16.260;2024-01-07T05:17:59;2.10;99.90
48206;DHT22;33995;48.202;16.260;2024-01-07T05:20:26;2.10;99.90
48206;DHT22;33995;48.202;16.260;2024-01-07T05:22:53;2.10;99.90
48206;DHT22;33995;48.202;16.260;2024-01-07T05:25:20;2.10;99.90
48206;DHT22;33995;48.202;16.260;2024-01-07T05:27:47;2.10;99.90
48206;DHT22;33995;48.202;16.260;2024-01-07T05:30:14;2.00;99.90
48206;DHT22;33995;48.202;16.260;2024-01-07T05:32:41;2.10;99.90
48206;DHT22;33995;48.202;16.260;2024-01-07T05:35:08;1.90;99.90
48206;DHT22;33995;48.202;16.260;2024-01-07T05:37:35;2.00;99.90
48206;DHT22;33995;48.202;16.260;2024-01-07T05:40:03;1.90;99.90
48206;DHT22;33995;48.202;16.260;2024-01-07T05:42:30;1.90;99.90
48206;DHT22;33995;48.202;16.260;2024-01-07T05:44:57;1.80;99.90
48206;DHT22;33995;48.202;16.260;2024-01-07T05:47:24;1.90;99.90
48206;DHT22;33995;48.202;16.260;2024-01-07T05:49:51;1.90;99.90
48206;DHT22;33995;48.202;16.260;2024-01-07T05:52:43;1.90;99.90
48206;DHT22;33995;48.202;16.260;2024-01-07T05:55:11;1.80;99.90
48206;DHT22;33995;48.202;16.260;2024-01-07T05:57:38;1.80;99.90
48206;DHT22;33995;48.202;16.260;2024-01-07T06:00:55;1.80;99.90
48206;DHT22;33995;48.202;16.260;2024-01-07T06:03:23;1.60;99.90
48206;DHT22;33995;48.202;16.260;2024-01-07T06:05:51;1.60;99.90
48206;DHT22;33995;48.202;16.260;2024-01-07T06:08:19;1.50;99.90
48206;DHT22;33995;48.202;16.260;2024-01-07T06:10:47;1.70;99.90
48206;DHT22;33995;48.202;16.260;2024-01-07T06:13:14;1.70;99.90
48206;DHT22;33995;48.202;16.260;2024-01-07T06:15:41;1.40;99.90
48206;DHT22;33995;48.202;16.260;2024-01-07T06:18:10;1.40;99.90
48206;DHT22;33995;48.202;16.260;2024-01-07T06:20:40;1.50;99.90
48206;DHT22;33995;48.202;16.260;2024-01-07T06:23:07;1.50;99.90
48206;DHT22;33995;48.202;16.260;2024-01-07T06:25:35;1.40;99.90
48206;DHT22;33995;48.202;16.260;2024-01-07T06:28:02;1.30;99.90
48206;DHT22;33995;48.202;16.260;2024-01-07T06:30:29;1.50;99.90
48206;DHT22;33995;48.202;16.260;2024-01-07T06:32:56;1.50;99.90
48206;DHT22;33995;48.202;16.260;2024-01-07T06:35:23;1.50;99.90
48206;DHT22;33995;48.202;16.260;2024-01-07T06:37:51;1.50;99.90
48206;DHT22;33995;48.202;16.260;2024-01-07T06:40:18;1.60;99.90
48206;DHT22;33995;48.202;16.260;2024-01-07T06:42:46;1.60;99.90
48206;DHT22;33995;48.202;16.260;2024-01-07T06:45:17;1.50;99.90
48206;DHT22;33995;48.202;16.260;2024-01-07T06:47:44;1.40;99.90
48206;DHT22;33995;48.202;16.260;2024-01-07T06:50:11;1.40;99.90
48206;DHT22;33995;48.202;16.260;2024-01-07T06:53:07;1.50;99.90
48206;DHT22;33995;48.202;16.260;2024-01-07T06:55:34;1.30;99.90
48206;DHT22;33995;48.202;16.260;2024-01-07T06:58:01;1.30;99.90
48206;DHT22;33995;48.202;16.260;2024-01-07T07:00:28;1.20;99.90
48206;DHT22;33995;48.202;16.260;2024-01-07T07:03:20;1.30;99.90
48206;DHT22;33995;48.202;16.260;2024-01-07T07:05:48;1.40;99.90
48206;DHT22;33995;48.202;16.260;2024-01-07T07:08:15;1.40;99.90
48206;DHT22;33995;48.202;16.260;2024-01-07T07:10:45;1.30;99.90
48206;DHT22;33995;48.202;16.260;2024-01-07T07:13:12;1.00;99.90
48206;DHT22;33995;48.202;16.260;2024-01-07T07:15:39;1.10;99.90
48206;DHT22;33995;48.202;16.260;2024-01-07T07:18:06;1.30;99.90
48206;DHT22;33995;48.202;16.260;2024-01-07T07:20:33;1.30;99.90
48206;DHT22;33995;48.202;16.260;2024-01-07T07:23:00;1.20;99.90
48206;DHT22;33995;48.202;16.260;2024-01-07T07:25:30;1.20;99.90
48206;DHT22;33995;48.202;16.260;2024-01-07T07:31:45;1.20;99.90
48206;DHT22;33995;48.202;16.260;2024-01-07T07:34:12;1.20;99.90
48206;DHT22;33995;48.202;16.260;2024-01-07T07:36:39;1.20;99.90
48206;DHT22;33995;48.202;16.260;2024-01-07T07:39:08;1.20;99.90
48206;DHT22;33995;48.202;16.260;2024-01-07T07:41:36;1.30;99.90
48206;DHT22;33995;48.202;16.260;2024-01-07T07:44:03;1.20;99.90
48206;DHT22;33995;48.202;16.260;2024-01-07T07:46:30;1.00;99.90
48206;DHT22;33995;48.202;16.260;2024-01-07T07:48:58;1.00;99.90
48206;DHT22;33995;48.202;16.260;2024-01-07T07:51:25;0.90;99.90
48206;DHT22;33995;48.202;16.260;2024-01-07T07:53:53;1.10;99.90
48206;DHT22;33995;48.202;16.260;2024-01-07T07:56:20;1.20;99.90
48206;DHT22;33995;48.202;16.260;2024-01-07T07:58:47;1.30;99.90
48206;DHT22;33995;48.202;16.260;2024-01-07T08:01:17;1.30;99.90
48206;DHT22;33995;48.202;16.260;2024-01-07T08:03:44;1.40;99.90
48206;DHT22;33995;48.202;16.260;2024-01-07T08:06:12;1.10;99.90
48206;DHT22;33995;48.202;16.260;2024-01-07T08:08:39;1.00;99.90
48206;DHT22;33995;48.202;16.260;2024-01-07T08:11:11;1.10;99.90
48206;DHT22;33995;48.202;16.260;2024-01-07T08:13:38;1.20;99.90
48206;DHT22;33995;48.202;16.260;2024-01-07T08:16:05;1.20;99.90
48206;DHT22;33995;48.202;16.260;2024-01-07T08:18:33;1.30;99.90
48206;DHT22;33995;48.202;16.260;2024-01-07T08:21:00;1.20;99.90
48206;DHT22;33995;48.202;16.260;2024-01-07T08:23:27;1.20;99.90
48206;DHT22;33995;48.202;16.260;2024-01-07T08:25:54;1.30;99.90
48206;DHT22;33995;48.202;16.260;2024-01-07T08:28:21;1.30;99.90
48206;DHT22;33995;48.202;16.260;2024-01-07T08:30:48;1.40;99.90
48206;DHT22;33995;48.202;16.260;2024-01-07T08:33:16;1.30;99.90
48206;DHT22;33995;48.202;16.260;2024-01-07T08:35:44;1.10;99.90
48206;DHT22;33995;48.202;16.260;2024-01-07T08:38:11;1.10;99.90
48206;DHT22;33995;48.202;16.260;2024-01-07T08:40:39;1.10;99.90
48206;DHT22;33995;48.202;16.260;2024-01-07T08:43:06;1.20;99.90
48206;DHT22;33995;48.202;16.260;2024-01-07T08:45:33;1.10;99.90
48206;DHT22;33995;48.202;16.260;2024-01-07T08:48:00;1.00;99.90
48206;DHT22;33995;48.202;16.260;2024-01-07T08:50:27;0.90;99.90
48206;DHT22;33995;48.202;16.260;2024-01-07T08:52:54;1.00;99.90
48206;DHT22;33995;48.202;16.260;2024-01-07T08:55:21;1.00;99.90
48206;DHT22;33995;48.202;16.260;2024-01-07T08:57:48;1.00;99.90
48206;DHT22;33995;48.202;16.260;2024-01-07T09:00:16;1.00;99.90
48206;DHT22;33995;48.202;16.260;2024-01-07T09:02:43;1.10;99.90
48206;DHT22;33995;48.202;16.260;2024-01-07T09:05:11;1.20;99.90
48206;DHT22;33995;48.202;16.260;2024-01-07T09:07:39;1.30;99.90
48206;DHT22;33995;48.202;16.260;2024-01-07T09:10:06;1.30;99.90
48206;DHT22;33995;48.202;16.260;2024-01-07T09:12:38;1.20;99.90
48206;DHT22;33995;48.202;16.260;2024-01-07T09:15:06;1.10;99.90
48206;DHT22;33995;48.202;16.260;2024-01-07T09:17:37;1.20;99.90
48206;DHT22;33995;48.202;16.260;2024-01-07T09:20:07;1.20;99.90
48206;DHT22;33995;48.202;16.260;2024-01-07T09:22:35;1.30;99.90
48206;DHT22;33995;48.202;16.260;2024-01-07T09:25:03;1.30;99.90
48206;DHT22;33995;48.202;16.260;2024-01-07T09:27:31;1.30;99.90
48206;DHT22;33995;48.202;16.260;2024-01-07T09:29:58;1.20;99.90
48206;DHT22;33995;48.202;16.260;2024-01-07T09:32:26;1.30;99.90
48206;DHT22;33995;48.202;16.260;2024-01-07T09:34:53;1.40;99.90
48206;DHT22;33995;48.202;16.260;2024-01-07T09:37:20;1.40;99.90
48206;DHT22;33995;48.202;16.260;2024-01-07T09:39:48;1.40;99.90
48206;DHT22;33995;48.202;16.260;2024-01-07T09:42:18;1.40;99.90
48206;DHT22;33995;48.202;16.260;2024-01-07T09:44:45;1.60;99.90
48206;DHT22;33995;48.202;16.260;2024-01-07T09:47:14;1.50;99.90
48206;DHT22;33995;48.202;16.260;2024-01-07T09:49:42;1.20;99.90
48206;DHT22;33995;48.202;16.260;2024-01-07T09:52:11;1.20;99.90
48206;DHT22;33995;48.202;16.260;2024-01-07T09:54:39;1.10;99.90
48206;DHT22;33995;48.202;16.260;2024-01-07T09:57:09;1.20;99.90
48206;DHT22;33995;48.202;16.260;2024-01-07T09:59:37;1.30;99.90
48206;DHT22;33995;48.202;16.260;2024-01-07T10:02:06;1.30;99.90
48206;DHT22;33995;48.202;16.260;2024-01-07T10:04:34;1.20;99.90
48206;DHT22;33995;48.202;16.260;2024-01-07T10:07:01;1.30;99.90
48206;DHT22;33995;48.202;16.260;2024-01-07T10:09:33;1.20;99.90
48206;DHT22;33995;48.202;16.260;2024-01-07T10:12:01;1.30;99.90
48206;DHT22;33995;48.202;16.260;2024-01-07T10:14:29;1.30;99.90
48206;DHT22;33995;48.202;16.260;2024-01-07T10:16:59;1.30;99.90
48206;DHT22;33995;48.202;16.260;2024-01-07T10:19:26;1.10;99.90
48206;DHT22;33995;48.202;16.260;2024-01-07T10:22:04;1.10;99.90
48206;DHT22;33995;48.202;16.260;2024-01-07T10:24:39;1.10;99.90
48206;DHT22;33995;48.202;16.260;2024-01-07T10:27:08;1.00;99.90
48206;DHT22;33995;48.202;16.260;2024-01-07T10:29:36;1.20;99.90
48206;DHT22;33995;48.202;16.260;2024-01-07T10:32:04;1.20;99.90
48206;DHT22;33995;48.202;16.260;2024-01-07T10:34:35;1.10;99.90
48206;DHT22;33995;48.202;16.260;2024-01-07T10:37:04;1.20;99.90
48206;DHT22;33995;48.202;16.260;2024-01-07T10:39:35;1.10;99.90
48206;DHT22;33995;48.202;16.260;2024-01-07T10:42:03;1.00;99.90
48206;DHT22;33995;48.202;16.260;2024-01-07T10:44:32;1.10;99.90
48206;DHT22;33995;48.202;16.260;2024-01-07T10:46:59;1.10;99.90
48206;DHT22;33995;48.202;16.260;2024-01-07T10:49:28;1.10;99.90
48206;DHT22;33995;48.202;16.260;2024-01-07T10:52:02;0.90;99.90
48206;DHT22;33995;48.202;16.260;2024-01-07T10:54:32;0.60;99.90
48206;DHT22;33995;48.202;16.260;2024-01-07T10:57:19;0.70;99.90
48206;DHT22;33995;48.202;16.260;2024-01-07T10:59:50;1.00;99.90
48206;DHT22;33995;48.202;16.260;2024-01-07T11:02:20;1.00;99.90
48206;DHT22;33995;48.202;16.260;2024-01-07T11:05:11;0.80;99.90
48206;DHT22;33995;48.202;16.260;2024-01-07T11:07:46;0.90;99.90
48206;DHT22;33995;48.202;16.260;2024-01-07T11:10:18;0.90;99.90
48206;DHT22;33995;48.202;16.260;2024-01-07T11:12:56;1.10;99.90
48206;DHT22;33995;48.202;16.260;2024-01-07T11:18:18;1.20;99.90
48206;DHT22;33995;48.202;16.260;2024-01-07T11:20:47;1.40;99.90
48206;DHT22;33995;48.202;16.260;2024-01-07T11:23:28;1.20;99.90
48206;DHT22;33995;48.202;16.260;2024-01-07T11:26:04;1.20;99.90
48206;DHT22;33995;48.202;16.260;2024-01-07T11:28:58;1.10;99.90
48206;DHT22;33995;48.202;16.260;2024-01-07T11:34:10;1.20;99.90
48206;DHT22;33995;48.202;16.260;2024-01-07T11:36:38;1.30;99.90
48206;DHT22;33995;48.202;16.260;2024-01-07T11:39:05;1.40;99.90
48206;DHT22;33995;48.202;16.260;2024-01-07T11:41:36;1.20;99.90
48206;DHT22;33995;48.202;16.260;2024-01-07T11:44:04;1.20;99.90
48206;DHT22;33995;48.202;16.260;2024-01-07T11:46:33;1.20;99.90
48206;DHT22;33995;48.202;16.260;2024-01-07T11:49:05;1.40;99.90
48206;DHT22;33995;48.202;16.260;2024-01-07T11:51:35;1.40;99.90
48206;DHT22;33995;48.202;16.260;2024-01-07T11:54:05;1.20;99.90
48206;DHT22;33995;48.202;16.260;2024-01-07T11:56:35;1.00;99.90
48206;DHT22;33995;48.202;16.260;2024-01-07T11:59:04;0.90;99.90
48206;DHT22;33995;48.202;16.260;2024-01-07T12:01:33;1.00;99.90
48206;DHT22;33995;48.202;16.260;2024-01-07T12:04:00;1.00;99.90
48206;DHT22;33995;48.202;16.260;2024-01-07T12:06:27;1.20;99.90
48206;DHT22;33995;48.202;16.260;2024-01-07T12:08:54;1.20;99.90
48206;DHT22;33995;48.202;16.260;2024-01-07T12:11:22;1.30;99.90
48206;DHT22;33995;48.202;16.260;2024-01-07T12:13:50;1.00;99.90
48206;DHT22;33995;48.202;16.260;2024-01-07T12:16:18;0.90;99.90
48206;DHT22;33995;48.202;16.260;2024-01-07T12:18:46;1.10;99.90
48206;DHT22;33995;48.202;16.260;2024-01-07T12:21:21;1.00;99.90
48206;DHT22;33995;48.202;16.260;2024-01-07T12:23:49;1.00;99.90
48206;DHT22;33995;48.202;16.260;2024-01-07T12:26:18;1.00;99.90
48206;DHT22;33995;48.202;16.260;2024-01-07T12:28:52;1.10;99.90
48206;DHT22;33995;48.202;16.260;2024-01-07T12:31:21;1.00;99.90
48206;DHT22;33995;48.202;16.260;2024-01-07T12:33:48;1.20;99.90
48206;DHT22;33995;48.202;16.260;2024-01-07T12:36:16;1.20;99.90
48206;DHT22;33995;48.202;16.260;2024-01-07T12:38:46;1.10;99.90
48206;DHT22;33995;48.202;16.260;2024-01-07T12:41:14;1.20;99.90
48206;DHT22;33995;48.202;16.260;2024-01-07T12:43:43;1.20;99.90
48206;DHT22;33995;48.202;16.260;2024-01-07T12:46:10;1.10;99.90
48206;DHT22;33995;48.202;16.260;2024-01-07T12:48:37;1.20;99.90
48206;DHT22;33995;48.202;16.260;2024-01-07T12:51:06;1.20;99.90
48206;DHT22;33995;48.202;16.260;2024-01-07T12:53:33;1.00;99.90
48206;DHT22;33995;48.202;16.260;2024-01-07T12:56:00;1.10;99.90
48206;DHT22;33995;48.202;16.260;2024-01-07T12:58:27;1.10;99.90
48206;DHT22;33995;48.202;16.260;2024-01-07T13:00:54;1.10;99.90
48206;DHT22;33995;48.202;16.260;2024-01-07T13:03:22;1.20;99.90
48206;DHT22;33995;48.202;16.260;2024-01-07T13:05:49;1.10;99.90
48206;DHT22;33995;48.202;16.260;2024-01-07T13:08:17;1.20;99.90
48206;DHT22;33995;48.202;16.260;2024-01-07T13:10:54;1.00;99.90
48206;DHT22;33995;48.202;16.260;2024-01-07T13:13:21;1.10;99.90
48206;DHT22;33995;48.202;16.260;2024-01-07T13:15:48;1.10;99.90
48206;DHT22;33995;48.202;16.260;2024-01-07T13:18:17;1.20;99.90
48206;DHT22;33995;48.202;16.260;2024-01-07T13:20:46;1.20;99.90
48206;DHT22;33995;48.202;16.260;2024-01-07T13:23:13;1.10;99.90
48206;DHT22;33995;48.202;16.260;2024-01-07T13:25:40;1.00;99.90
48206;DHT22;33995;48.202;16.260;2024-01-07T13:28:07;0.80;99.90
48206;DHT22;33995;48.202;16.260;2024-01-07T13:30:38;0.80;99.90
48206;DHT22;33995;48.202;16.260;2024-01-07T13:33:07;1.00;99.90
48206;DHT22;33995;48.202;16.260;2024-01-07T13:35:35;1.10;99.90
48206;DHT22;33995;48.202;16.260;2024-01-07T13:38:02;0.90;99.90
48206;DHT22;33995;48.202;16.260;2024-01-07T13:40:29;1.00;99.90
48206;DHT22;33995;48.202;16.260;2024-01-07T13:42:56;0.90;99.90
48206;DHT22;33995;48.202;16.260;2024-01-07T13:45:23;0.80;99.90
48206;DHT22;33995;48.202;16.260;2024-01-07T13:47:50;0.80;99.90
48206;DHT22;33995;48.202;16.260;2024-01-07T13:50:18;0.60;99.90
48206;DHT22;33995;48.202;16.260;2024-01-07T13:52:46;0.80;99.90
48206;DHT22;33995;48.202;16.260;2024-01-07T13:55:13;0.90;99.90
48206;DHT22;33995;48.202;16.260;2024-01-07T13:57:43;1.00;99.90
48206;DHT22;33995;48.202;16.260;2024-01-07T14:00:12;1.00;99.90
48206;DHT22;33995;48.202;16.260;2024-01-07T14:02:46;0.70;99.90
48206;DHT22;33995;48.202;16.260;2024-01-07T14:05:13;0.60;99.90
48206;DHT22;33995;48.202;16.260;2024-01-07T14:07:46;0.60;99.90
48206;DHT22;33995;48.202;16.260;2024-01-07T14:10:13;0.60;99.90
48206;DHT22;33995;48.202;16.260;2024-01-07T14:12:41;0.50;99.90
48206;DHT22;33995;48.202;16.260;2024-01-07T14:15:09;0.60;99.90
48206;DHT22;33995;48.202;16.260;2024-01-07T14:17:36;0.50;99.90
48206;DHT22;33995;48.202;16.260;2024-01-07T14:20:03;0.60;99.90
48206;DHT22;33995;48.202;16.260;2024-01-07T14:22:31;0.50;99.90
48206;DHT22;33995;48.202;16.260;2024-01-07T14:24:58;0.90;99.90
48206;DHT22;33995;48.202;16.260;2024-01-07T14:27:25;0.70;99.90
48206;DHT22;33995;48.202;16.260;2024-01-07T14:29:52;0.70;99.90
48206;DHT22;33995;48.202;16.260;2024-01-07T14:32:20;0.60;99.90
48206;DHT22;33995;48.202;16.260;2024-01-07T14:34:47;0.60;99.90
48206;DHT22;33995;48.202;16.260;2024-01-07T14:37:16;1.00;99.90
48206;DHT22;33995;48.202;16.260;2024-01-07T14:39:43;1.10;99.90
48206;DHT22;33995;48.202;16.260;2024-01-07T14:42:12;1.00;99.90
48206;DHT22;33995;48.202;16.260;2024-01-07T14:44:39;0.90;99.90
48206;DHT22;33995;48.202;16.260;2024-01-07T14:47:17;0.90;99.90
48206;DHT22;33995;48.202;16.260;2024-01-07T14:49:45;0.70;99.90
48206;DHT22;33995;48.202;16.260;2024-01-07T14:52:12;0.80;99.90
48206;DHT22;33995;48.202;16.260;2024-01-07T14:54:40;0.80;99.90
48206;DHT22;33995;48.202;16.260;2024-01-07T14:57:07;0.80;99.90
48206;DHT22;33995;48.202;16.260;2024-01-07T14:59:36;0.80;99.90
48206;DHT22;33995;48.202;16.260;2024-01-07T15:02:03;0.70;99.90
48206;DHT22;33995;48.202;16.260;2024-01-07T15:04:31;0.80;99.90
48206;DHT22;33995;48.202;16.260;2024-01-07T15:06:58;0.80;99.90
48206;DHT22;33995;48.202;16.260;2024-01-07T15:09:26;0.90;99.90
48206;DHT22;33995;48.202;16.260;2024-01-07T15:11:54;0.70;99.90
48206;DHT22;33995;48.202;16.260;2024-01-07T15:14:21;0.50;99.90
48206;DHT22;33995;48.202;16.260;2024-01-07T15:16:48;0.50;99.90
48206;DHT22;33995;48.202;16.260;2024-01-07T15:19:18;0.50;99.90
48206;DHT22;33995;48.202;16.260;2024-01-07T15:21:45;0.60;99.90
48206;DHT22;33995;48.202;16.260;2024-01-07T15:24:12;0.50;99.90
48206;DHT22;33995;48.202;16.260;2024-01-07T15:26:39;0.60;99.90
48206;DHT22;33995;48.202;16.260;2024-01-07T15:29:06;0.70;99.90
48206;DHT22;33995;48.202;16.260;2024-01-07T15:31:34;0.60;99.90
48206;DHT22;33995;48.202;16.260;2024-01-07T15:34:01;0.60;99.90
48206;DHT22;33995;48.202;16.260;2024-01-07T15:36:28;0.50;99.90
48206;DHT22;33995;48.202;16.260;2024-01-07T15:38:55;0.40;99.90
48206;DHT22;33995;48.202;16.260;2024-01-07T15:41:22;0.50;99.90
48206;DHT22;33995;48.202;16.260;2024-01-07T15:43:49;0.60;99.90
48206;DHT22;33995;48.202;16.260;2024-01-07T15:46:16;0.60;99.90
48206;DHT22;33995;48.202;16.260;2024-01-07T15:48:43;0.50;99.90
48206;DHT22;33995;48.202;16.260;2024-01-07T15:51:11;0.50;99.90